Terminal Aerodrome Forecast
Issued by NWS

Home | Current Version | Previous Version | Text Only | Print | Product List | Glossary On
Versions: 1 2 3 4 5 6 7 8 9 10 11 12 13 14 15 16
000
FTUS43 KGRR 301200 AAA
TAFLAN
TAF AMD
KLAN 301215Z 3012/3112 16009KT P6SM VCSH SCT050 BKN120
     FM301255 18012KT 2SM SHRA BR VCTS OVC035CB
     FM301400 19009KT 5SM BR VCSH SCT050 BKN120
     FM301600 21016G26KT P6SM VCTS SCT025CB BKN050
     FM310000 23011KT P6SM BKN035
     FM310500 23007KT 4SM BR OVC015
     FM310800 23005KT 2SM BR OVC003
     FM311000 23004KT 1 1/2SM BR OVC003=

USA.gov is the U.S. government's official web portal to all federal, state and local government web resources and services.